sensor_id;sensor_type;location;lat;lon;timestamp;pressure;altitude;pressure_sealevel;temperature;humidity
52105;BME280;38103;42.776;23.112;2022-07-06T00:01:23;94017.69;;;18.43;98.51
52105;BME280;38103;42.776;23.112;2022-07-06T00:03:48;94012.94;;;18.35;98.66
52105;BME280;38103;42.776;23.112;2022-07-06T00:06:14;94021.50;;;18.37;99.05
52105;BME280;38103;42.776;23.112;2022-07-06T00:08:41;94019.34;;;18.39;98.41
52105;BME280;38103;42.776;23.112;2022-07-06T00:11:07;94014.22;;;18.43;98.35
52105;BME280;38103;42.776;23.112;2022-07-06T00:13:32;94007.50;;;18.46;97.99
52105;BME280;38103;42.776;23.112;2022-07-06T00:15:58;94004.31;;;18.43;98.32
52105;BME280;38103;42.776;23.112;2022-07-06T00:18:23;94001.78;;;18.28;98.90
52105;BME280;38103;42.776;23.112;2022-07-06T00:20:48;93990.13;;;18.13;100.00
52105;BME280;38103;42.776;23.112;2022-07-06T00:23:14;93994.91;;;18.22;100.00
52105;BME280;38103;42.776;23.112;2022-07-06T00:25:39;93993.25;;;18.26;99.73
52105;BME280;38103;42.776;23.112;2022-07-06T00:28:05;93985.72;;;18.28;99.66
52105;BME280;38103;42.776;23.112;2022-07-06T00:30:31;93980.84;;;18.35;99.12
52105;BME280;38103;42.776;23.112;2022-07-06T00:32:56;93983.00;;;18.33;99.18
52105;BME280;38103;42.776;23.112;2022-07-06T00:35:24;93984.34;;;18.30;99.21
52105;BME280;38103;42.776;23.112;2022-07-06T00:37:49;93978.28;;;18.19;99.65
52105;BME280;38103;42.776;23.112;2022-07-06T00:40:15;93986.47;;;18.04;99.94
52105;BME280;38103;42.776;23.112;2022-07-06T00:42:45;93978.94;;;18.06;99.97
52105;BME280;38103;42.776;23.112;2022-07-06T00:45:12;93936.63;;;17.78;99.80
52105;BME280;38103;42.776;23.112;2022-07-06T00:47:39;93958.28;;;17.82;100.00
52105;BME280;38103;42.776;23.112;2022-07-06T00:50:05;93992.38;;;18.01;100.00
52105;BME280;38103;42.776;23.112;2022-07-06T00:52:45;93989.66;;;18.06;99.30
52105;BME280;38103;42.776;23.112;2022-07-06T00:55:12;93986.69;;;18.07;98.99
52105;BME280;38103;42.776;23.112;2022-07-06T00:57:39;93989.66;;;18.06;98.75
52105;BME280;38103;42.776;23.112;2022-07-06T01:00:07;93991.22;;;18.07;98.26
52105;BME280;38103;42.776;23.112;2022-07-06T01:02:35;93980.53;;;18.07;97.88
52105;BME280;38103;42.776;23.112;2022-07-06T01:05:02;93968.38;;;17.90;97.59
52105;BME280;38103;42.776;23.112;2022-07-06T01:07:28;93969.44;;;17.89;96.95
52105;BME280;38103;42.776;23.112;2022-07-06T01:09:55;93987.03;;;18.01;98.17
52105;BME280;38103;42.776;23.112;2022-07-06T01:12:20;93990.00;;;17.94;98.20
52105;BME280;38103;42.776;23.112;2022-07-06T01:14:47;93989.78;;;17.90;97.67
52105;BME280;38103;42.776;23.112;2022-07-06T01:17:13;93986.06;;;17.86;97.28
52105;BME280;38103;42.776;23.112;2022-07-06T01:19:40;93978.66;;;17.78;98.86
52105;BME280;38103;42.776;23.112;2022-07-06T01:22:06;93974.41;;;17.71;99.32
52105;BME280;38103;42.776;23.112;2022-07-06T01:24:31;93977.06;;;17.71;99.04
52105;BME280;38103;42.776;23.112;2022-07-06T01:26:57;93981.91;;;17.69;98.80
52105;BME280;38103;42.776;23.112;2022-07-06T01:29:23;93970.97;;;17.65;98.28
52105;BME280;38103;42.776;23.112;2022-07-06T01:31:50;93973.13;;;17.63;98.21
52105;BME280;38103;42.776;23.112;2022-07-06T01:34:17;93976.09;;;17.62;97.69
52105;BME280;38103;42.776;23.112;2022-07-06T01:36:43;93960.59;;;17.59;98.34
52105;BME280;38103;42.776;23.112;2022-07-06T01:39:08;93959.00;;;17.58;99.12
52105;BME280;38103;42.776;23.112;2022-07-06T01:41:34;93965.94;;;17.59;98.99
52105;BME280;38103;42.776;23.112;2022-07-06T01:44:00;93958.75;;;17.54;98.99
52105;BME280;38103;42.776;23.112;2022-07-06T01:46:26;93959.00;;;17.58;98.69
52105;BME280;38103;42.776;23.112;2022-07-06T01:48:51;93944.09;;;17.51;98.54
52105;BME280;38103;42.776;23.112;2022-07-06T01:51:17;93947.28;;;17.53;99.15
52105;BME280;38103;42.776;23.112;2022-07-06T01:53:42;93944.09;;;17.51;98.88
52105;BME280;38103;42.776;23.112;2022-07-06T01:56:08;93952.09;;;17.51;99.42
52105;BME280;38103;42.776;23.112;2022-07-06T01:58:34;93944.63;;;17.48;99.52
52105;BME280;38103;42.776;23.112;2022-07-06T02:01:01;93954.25;;;17.49;98.79
52105;BME280;38103;42.776;23.112;2022-07-06T02:03:31;93949.47;;;17.46;99.01
52105;BME280;38103;42.776;23.112;2022-07-06T02:05:56;93941.44;;;17.46;98.98
52105;BME280;38103;42.776;23.112;2022-07-06T02:08:22;93936.94;;;17.41;99.11
52105;BME280;38103;42.776;23.112;2022-07-06T02:10:47;93944.13;;;17.46;98.80
52105;BME280;38103;42.776;23.112;2022-07-06T02:13:12;93945.19;;;17.45;98.91
52105;BME280;38103;42.776;23.112;2022-07-06T02:15:38;93943.59;;;17.44;97.99
52105;BME280;38103;42.776;23.112;2022-07-06T02:18:03;93954.28;;;17.44;98.26
52105;BME280;38103;42.776;23.112;2022-07-06T02:20:29;93956.19;;;17.38;98.35
52105;BME280;38103;42.776;23.112;2022-07-06T02:22:54;93959.19;;;17.31;99.00
52105;BME280;38103;42.776;23.112;2022-07-06T02:25:19;93966.13;;;17.33;98.51
52105;BME280;38103;42.776;23.112;2022-07-06T02:27:45;93960.25;;;17.30;98.47
52105;BME280;38103;42.776;23.112;2022-07-06T02:30:10;93956.53;;;17.31;98.39
52105;BME280;38103;42.776;23.112;2022-07-06T02:32:36;93909.41;;;17.01;98.04
52105;BME280;38103;42.776;23.112;2022-07-06T02:35:01;93948.53;;;17.26;98.23
52105;BME280;38103;42.776;23.112;2022-07-06T02:37:26;93955.50;;;17.22;98.74
52105;BME280;38103;42.776;23.112;2022-07-06T02:39:52;93949.63;;;17.20;98.86
52105;BME280;38103;42.776;23.112;2022-07-06T02:42:17;93952.84;;;17.17;98.40
52105;BME280;38103;42.776;23.112;2022-07-06T02:44:43;93957.13;;;17.18;98.33
52105;BME280;38103;42.776;23.112;2022-07-06T02:47:08;93932.63;;;17.00;99.45
52105;BME280;38103;42.776;23.112;2022-07-06T02:49:33;93946.69;;;17.11;99.71
52105;BME280;38103;42.776;23.112;2022-07-06T02:51:59;93946.97;;;17.09;100.00
52105;BME280;38103;42.776;23.112;2022-07-06T02:54:24;93941.13;;;17.07;100.00
52105;BME280;38103;42.776;23.112;2022-07-06T02:56:49;93942.16;;;17.12;100.00
52105;BME280;38103;42.776;23.112;2022-07-06T02:59:19;93893.25;;;16.71;100.00
52105;BME280;38103;42.776;23.112;2022-07-06T03:01:45;93942.97;;;17.12;100.00
52105;BME280;38103;42.776;23.112;2022-07-06T03:04:10;93941.66;;;17.09;100.00
52105;BME280;38103;42.776;23.112;2022-07-06T03:06:36;93947.03;;;16.99;100.00
52105;BME280;38103;42.776;23.112;2022-07-06T03:09:02;93946.78;;;17.01;100.00
52105;BME280;38103;42.776;23.112;2022-07-06T03:11:27;93951.88;;;16.97;100.00
52105;BME280;38103;42.776;23.112;2022-07-06T03:13:53;93943.81;;;17.02;100.00
52105;BME280;38103;42.776;23.112;2022-07-06T03:16:18;93945.44;;;17.03;100.00
52105;BME280;38103;42.776;23.112;2022-07-06T03:18:43;93922.03;;;16.84;100.00
52105;BME280;38103;42.776;23.112;2022-07-06T03:21:09;93948.66;;;17.00;100.00
52105;BME280;38103;42.776;23.112;2022-07-06T03:23:34;93952.13;;;17.01;100.00
52105;BME280;38103;42.776;23.112;2022-07-06T03:26:01;93952.34;;;17.04;100.00
52105;BME280;38103;42.776;23.112;2022-07-06T03:28:26;93960.84;;;17.12;100.00
52105;BME280;38103;42.776;23.112;2022-07-06T03:30:52;93918.84;;;16.82;100.00
52105;BME280;38103;42.776;23.112;2022-07-06T03:33:17;93961.91;;;17.26;100.00
52105;BME280;38103;42.776;23.112;2022-07-06T03:35:43;93972.56;;;17.31;100.00
52105;BME280;38103;42.776;23.112;2022-07-06T03:38:08;93971.91;;;17.45;99.75
52105;BME280;38103;42.776;23.112;2022-07-06T03:40:33;93965.94;;;17.59;99.19
52105;BME280;38103;42.776;23.112;2022-07-06T03:42:59;93970.97;;;17.65;98.30
52105;BME280;38103;42.776;23.112;2022-07-06T03:45:24;93975.22;;;17.72;98.23
52105;BME280;38103;42.776;23.112;2022-07-06T03:47:50;93977.56;;;17.79;98.11
52105;BME280;38103;42.776;23.112;2022-07-06T03:50:15;93984.81;;;18.08;97.29
52105;BME280;38103;42.776;23.112;2022-07-06T03:52:41;93976.16;;;18.22;95.83
52105;BME280;38103;42.776;23.112;2022-07-06T03:55:08;93976.56;;;18.34;94.49
52105;BME280;38103;42.776;23.112;2022-07-06T03:57:34;93976.97;;;18.47;94.30
52105;BME280;38103;42.776;23.112;2022-07-06T04:00:00;93981.66;;;18.60;93.54
52105;BME280;38103;42.776;23.112;2022-07-06T04:02:25;93985.53;;;18.73;92.54
52105;BME280;38103;42.776;23.112;2022-07-06T04:04:51;93950.44;;;18.50;91.76
52105;BME280;38103;42.776;23.112;2022-07-06T04:07:16;93992.59;;;18.89;91.86
52105;BME280;38103;42.776;23.112;2022-07-06T04:09:41;93982.69;;;18.64;92.64
52105;BME280;38103;42.776;23.112;2022-07-06T04:12:07;93985.88;;;18.67;93.41
52105;BME280;38103;42.776;23.112;2022-07-06T04:14:32;93992.94;;;18.57;93.64
52105;BME280;38103;42.776;23.112;2022-07-06T04:16:58;93992.06;;;18.37;94.65
52105;BME280;38103;42.776;23.112;2022-07-06T04:19:23;93995.88;;;18.31;95.53
52105;BME280;38103;42.776;23.112;2022-07-06T04:21:48;93998.09;;;18.18;96.43
52105;BME280;38103;42.776;23.112;2022-07-06T04:24:14;94007.75;;;18.14;97.08
52105;BME280;38103;42.776;23.112;2022-07-06T04:26:39;94015.25;;;18.12;97.21
52105;BME280;38103;42.776;23.112;2022-07-06T04:29:04;94018.44;;;18.14;97.96
52105;BME280;38103;42.776;23.112;2022-07-06T04:31:30;94026.53;;;18.09;98.33
52105;BME280;38103;42.776;23.112;2022-07-06T04:33:55;94022.38;;;17.92;99.44
52105;BME280;38103;42.776;23.112;2022-07-06T04:36:21;94035.47;;;17.94;99.75
52105;BME280;38103;42.776;23.112;2022-07-06T04:38:46;94033.47;;;17.75;100.00
52105;BME280;38103;42.776;23.112;2022-07-06T04:41:12;94035.38;;;17.69;100.00
52105;BME280;38103;42.776;23.112;2022-07-06T04:43:38;94040.97;;;17.73;100.00
52105;BME280;38103;42.776;23.112;2022-07-06T04:46:03;94032.34;;;17.81;100.00
52105;BME280;38103;42.776;23.112;2022-07-06T04:48:30;93988.91;;;17.65;100.00
52105;BME280;38103;42.776;23.112;2022-07-06T04:50:57;94037.25;;;18.09;100.00
52105;BME280;38103;42.776;23.112;2022-07-06T04:53:23;94030.16;;;18.29;100.00
52105;BME280;38103;42.776;23.112;2022-07-06T04:55:48;94037.84;;;18.65;100.00
52105;BME280;38103;42.776;23.112;2022-07-06T04:58:14;94038.06;;;18.94;99.56
52105;BME280;38103;42.776;23.112;2022-07-06T05:00:39;94038.44;;;19.31;99.06
52105;BME280;38103;42.776;23.112;2022-07-06T05:03:05;94041.81;;;19.81;96.67
52105;BME280;38103;42.776;23.112;2022-07-06T05:05:30;94047.06;;;20.05;90.45
52105;BME280;38103;42.776;23.112;2022-07-06T05:07:55;94040.84;;;19.91;89.11
52105;BME280;38103;42.776;23.112;2022-07-06T05:10:21;94048.59;;;19.92;89.44
52105;BME280;38103;42.776;23.112;2022-07-06T05:12:46;94052.16;;;20.07;90.86
52105;BME280;38103;42.776;23.112;2022-07-06T05:15:12;94054.63;;;20.23;89.22
52105;BME280;38103;42.776;23.112;2022-07-06T05:17:37;94045.78;;;20.36;89.11
52105;BME280;38103;42.776;23.112;2022-07-06T05:20:04;94050.81;;;20.57;87.64
52105;BME280;38103;42.776;23.112;2022-07-06T05:22:30;94004.84;;;20.45;88.56
52105;BME280;38103;42.776;23.112;2022-07-06T05:24:55;94041.69;;;20.86;85.91
52105;BME280;38103;42.776;23.112;2022-07-06T05:27:20;94036.72;;;20.94;85.05
52105;BME280;38103;42.776;23.112;2022-07-06T05:29:46;94036.72;;;20.94;83.58
52105;BME280;38103;42.776;23.112;2022-07-06T05:32:11;94044.91;;;21.17;83.77
52105;BME280;38103;42.776;23.112;2022-07-06T05:34:37;94040.22;;;21.23;81.83
52105;BME280;38103;42.776;23.112;2022-07-06T05:37:03;94047.44;;;21.50;84.34
52105;BME280;38103;42.776;23.112;2022-07-06T05:39:28;94047.72;;;21.63;80.87
52105;BME280;38103;42.776;23.112;2022-07-06T05:41:54;94055.34;;;21.84;81.83
52105;BME280;38103;42.776;23.112;2022-07-06T05:44:19;94062.44;;;21.80;80.48
52105;BME280;38103;42.776;23.112;2022-07-06T05:46:45;94041.81;;;21.75;78.43
52105;BME280;38103;42.776;23.112;2022-07-06T05:49:10;94061.13;;;21.91;78.00
52105;BME280;38103;42.776;23.112;2022-07-06T05:51:54;94064.50;;;21.83;77.72
52105;BME280;38103;42.776;23.112;2022-07-06T05:54:19;94068.53;;;21.71;77.75
52105;BME280;38103;42.776;23.112;2022-07-06T05:56:45;94066.66;;;21.72;79.03
52105;BME280;38103;42.776;23.112;2022-07-06T05:59:10;94066.16;;;21.55;80.50
52105;BME280;38103;42.776;23.112;2022-07-06T06:01:35;94071.56;;;21.55;80.61
52105;BME280;38103;42.776;23.112;2022-07-06T06:04:01;94064.81;;;21.44;78.42
52105;BME280;38103;42.776;23.112;2022-07-06T06:06:26;94048.50;;;21.12;78.87
52105;BME280;38103;42.776;23.112;2022-07-06T06:08:52;94078.34;;;21.53;79.31
52105;BME280;38103;42.776;23.112;2022-07-06T06:11:17;94069.88;;;21.83;80.59
52105;BME280;38103;42.776;23.112;2022-07-06T06:13:43;94076.19;;;21.92;79.53
52105;BME280;38103;42.776;23.112;2022-07-06T06:16:09;94073.88;;;21.85;78.25
52105;BME280;38103;42.776;23.112;2022-07-06T06:18:34;94074.72;;;21.72;77.58
52105;BME280;38103;42.776;23.112;2022-07-06T06:21:00;94058.69;;;21.52;77.58
52105;BME280;38103;42.776;23.112;2022-07-06T06:23:25;94058.25;;;21.36;78.40
52105;BME280;38103;42.776;23.112;2022-07-06T06:25:51;94064.00;;;21.29;79.36
52105;BME280;38103;42.776;23.112;2022-07-06T06:28:16;94066.63;;;21.20;79.79
52105;BME280;38103;42.776;23.112;2022-07-06T06:30:42;94065.38;;;20.84;80.04
52105;BME280;38103;42.776;23.112;2022-07-06T06:33:07;94066.75;;;20.68;80.41
52105;BME280;38103;42.776;23.112;2022-07-06T06:35:33;94073.53;;;20.79;82.60
52105;BME280;38103;42.776;23.112;2022-07-06T06:37:59;94076.50;;;20.77;82.71
52105;BME280;38103;42.776;23.112;2022-07-06T06:40:24;94073.81;;;20.77;80.68
52105;BME280;38103;42.776;23.112;2022-07-06T06:42:50;94075.47;;;20.59;80.19
52105;BME280;38103;42.776;23.112;2022-07-06T06:45:15;94060.97;;;20.60;80.60
52105;BME280;38103;42.776;23.112;2022-07-06T06:47:40;94065.84;;;20.58;81.36
52105;BME280;38103;42.776;23.112;2022-07-06T06:50:06;94060.59;;;20.81;83.00
52105;BME280;38103;42.776;23.112;2022-07-06T06:52:32;94052.25;;;20.97;82.37
52105;BME280;38103;42.776;23.112;2022-07-06T06:54:57;94054.28;;;21.05;79.67
52105;BME280;38103;42.776;23.112;2022-07-06T06:57:22;94046.72;;;21.07;81.24
52105;BME280;38103;42.776;23.112;2022-07-06T06:59:48;94049.31;;;21.13;79.03
52105;BME280;38103;42.776;23.112;2022-07-06T07:02:13;94051.66;;;21.00;80.31
52105;BME280;38103;42.776;23.112;2022-07-06T07:04:38;94057.03;;;21.00;80.80
52105;BME280;38103;42.776;23.112;2022-07-06T07:07:04;94059.41;;;20.87;80.80
52105;BME280;38103;42.776;23.112;2022-07-06T07:09:29;94072.44;;;20.80;80.15
52105;BME280;38103;42.776;23.112;2022-07-06T07:11:55;94054.91;;;20.69;80.71
52105;BME280;38103;42.776;23.112;2022-07-06T07:14:20;94058.00;;;20.76;82.36
52105;BME280;38103;42.776;23.112;2022-07-06T07:16:46;94062.78;;;20.79;81.43
52105;BME280;38103;42.776;23.112;2022-07-06T07:19:11;94058.91;;;20.85;81.77
52105;BME280;38103;42.776;23.112;2022-07-06T07:21:36;94056.63;;;20.93;82.52
52105;BME280;38103;42.776;23.112;2022-07-06T07:24:02;94034.81;;;20.80;80.59
52105;BME280;38103;42.776;23.112;2022-07-06T07:26:27;94052.25;;;20.97;81.40
52105;BME280;38103;42.776;23.112;2022-07-06T07:28:53;94044.03;;;21.07;82.25
52105;BME280;38103;42.776;23.112;2022-07-06T07:31:19;94047.38;;;20.99;79.95
52105;BME280;38103;42.776;23.112;2022-07-06T07:33:44;94052.25;;;20.97;81.08
52105;BME280;38103;42.776;23.112;2022-07-06T07:36:09;94046.28;;;21.00;82.03
52105;BME280;38103;42.776;23.112;2022-07-06T07:38:35;94048.91;;;21.05;81.33
52105;BME280;38103;42.776;23.112;2022-07-06T07:41:00;94048.28;;;21.08;82.36
52105;BME280;38103;42.776;23.112;2022-07-06T07:43:25;94005.25;;;20.80;80.09
52105;BME280;38103;42.776;23.112;2022-07-06T07:45:51;94011.66;;;20.84;80.04
52105;BME280;38103;42.776;23.112;2022-07-06T07:48:17;94057.03;;;21.00;81.47
52105;BME280;38103;42.776;23.112;2022-07-06T07:50:42;94054.28;;;21.05;82.71
52105;BME280;38103;42.776;23.112;2022-07-06T07:53:08;94058.53;;;21.06;81.63
52105;BME280;38103;42.776;23.112;2022-07-06T07:55:33;94054.06;;;21.16;81.07
52105;BME280;38103;42.776;23.112;2022-07-06T07:57:58;94059.31;;;21.21;82.10
52105;BME280;38103;42.776;23.112;2022-07-06T08:00:24;94064.44;;;21.23;81.12
52105;BME280;38103;42.776;23.112;2022-07-06T08:02:50;94062.34;;;21.34;81.83
52105;BME280;38103;42.776;23.112;2022-07-06T08:05:15;94064.69;;;21.49;81.22
52105;BME280;38103;42.776;23.112;2022-07-06T08:07:42;94062.63;;;21.46;80.03
52105;BME280;38103;42.776;23.112;2022-07-06T08:10:08;94070.78;;;21.41;80.18
52105;BME280;38103;42.776;23.112;2022-07-06T08:12:35;94065.03;;;21.34;79.89
52105;BME280;38103;42.776;23.112;2022-07-06T08:15:00;94066.38;;;21.45;79.87
52105;BME280;38103;42.776;23.112;2022-07-06T08:17:25;94067.88;;;21.51;80.98
52105;BME280;38103;42.776;23.112;2022-07-06T08:19:51;94069.19;;;21.54;80.40
52105;BME280;38103;42.776;23.112;2022-07-06T08:22:16;94065.56;;;21.59;79.04
52105;BME280;38103;42.776;23.112;2022-07-06T08:24:42;94054.22;;;21.48;79.32
52105;BME280;38103;42.776;23.112;2022-07-06T08:27:08;94052.22;;;21.53;79.29
52105;BME280;38103;42.776;23.112;2022-07-06T08:29:33;94029.53;;;21.46;78.85
52105;BME280;38103;42.776;23.112;2022-07-06T08:31:59;94068.03;;;21.69;79.52
52105;BME280;38103;42.776;23.112;2022-07-06T08:34:24;94064.25;;;21.70;80.03
52105;BME280;38103;42.776;23.112;2022-07-06T08:36:50;94064.69;;;21.86;78.52
52105;BME280;38103;42.776;23.112;2022-07-06T08:39:15;94063.94;;;22.09;79.56
52105;BME280;38103;42.776;23.112;2022-07-06T08:41:41;94066.22;;;22.16;77.51
52105;BME280;38103;42.776;23.112;2022-07-06T08:44:08;94076.25;;;22.24;78.32
52105;BME280;38103;42.776;23.112;2022-07-06T08:46:37;94040.06;;;22.16;76.39
52105;BME280;38103;42.776;23.112;2022-07-06T08:49:06;94075.50;;;22.32;74.78
52105;BME280;38103;42.776;23.112;2022-07-06T08:51:31;94049.28;;;21.92;76.42
52105;BME280;38103;42.776;23.112;2022-07-06T08:53:57;94078.03;;;22.06;75.12
52105;BME280;38103;42.776;23.112;2022-07-06T08:56:23;94072.94;;;22.27;78.10
52105;BME280;38103;42.776;23.112;2022-07-06T08:58:50;94036.06;;;22.05;77.12
52105;BME280;38103;42.776;23.112;2022-07-06T09:01:16;94077.69;;;22.44;75.15
52105;BME280;38103;42.776;23.112;2022-07-06T09:03:43;94088.69;;;22.34;74.12
52105;BME280;38103;42.776;23.112;2022-07-06T09:06:11;94088.31;;;22.27;75.46
52105;BME280;38103;42.776;23.112;2022-07-06T09:08:37;94079.34;;;22.31;75.37
52105;BME280;38103;42.776;23.112;2022-07-06T09:11:03;94085.88;;;22.39;74.71
52105;BME280;38103;42.776;23.112;2022-07-06T09:13:29;94080.97;;;22.41;73.83
52105;BME280;38103;42.776;23.112;2022-07-06T09:15:54;94085.63;;;22.27;74.96
52105;BME280;38103;42.776;23.112;2022-07-06T09:18:23;94080.97;;;22.18;74.95
52105;BME280;38103;42.776;23.112;2022-07-06T09:20:48;94078.75;;;21.97;75.92
52105;BME280;38103;42.776;23.112;2022-07-06T09:23:16;94080.63;;;22.11;76.45
52105;BME280;38103;42.776;23.112;2022-07-06T09:25:47;94075.22;;;22.11;77.34
52105;BME280;38103;42.776;23.112;2022-07-06T09:28:14;94079.50;;;22.35;78.85
52105;BME280;38103;42.776;23.112;2022-07-06T09:30:39;94074.47;;;22.42;76.67
52105;BME280;38103;42.776;23.112;2022-07-06T09:33:07;94072.88;;;22.64;75.89
52105;BME280;38103;42.776;23.112;2022-07-06T09:35:37;94071.84;;;22.83;74.92
52105;BME280;38103;42.776;23.112;2022-07-06T09:40:32;94069.47;;;23.14;72.30
52105;BME280;38103;42.776;23.112;2022-07-06T09:43:18;94069.81;;;23.21;74.35
52105;BME280;38103;42.776;23.112;2022-07-06T09:45:48;94057.47;;;23.38;72.27
52105;BME280;38103;42.776;23.112;2022-07-06T09:48:17;94049.88;;;23.40;72.65
52105;BME280;38103;42.776;23.112;2022-07-06T09:50:49;94064.19;;;23.49;71.50
52105;BME280;38103;42.776;23.112;2022-07-06T09:53:17;94056.09;;;23.49;73.23
52105;BME280;38103;42.776;23.112;2022-07-06T09:55:47;94065.56;;;23.47;71.85
52105;BME280;38103;42.776;23.112;2022-07-06T09:58:14;94066.19;;;23.43;71.94
52105;BME280;38103;42.776;23.112;2022-07-06T10:00:41;94054.91;;;23.32;71.46
52105;BME280;38103;42.776;23.112;2022-07-06T10:03:07;94058.47;;;23.51;72.46
52105;BME280;38103;42.776;23.112;2022-07-06T10:05:39;94055.97;;;23.72;69.83
52105;BME280;38103;42.776;23.112;2022-07-06T10:08:06;94057.56;;;23.91;73.91
52105;BME280;38103;42.776;23.112;2022-07-06T10:10:35;94051.84;;;24.02;69.52
52105;BME280;38103;42.776;23.112;2022-07-06T10:13:01;94055.66;;;24.00;68.87
52105;BME280;38103;42.776;23.112;2022-07-06T10:15:30;94051.19;;;24.05;69.25
52105;BME280;38103;42.776;23.112;2022-07-06T10:17:59;94053.41;;;24.03;70.29
52105;BME280;38103;42.776;23.112;2022-07-06T10:20:28;94050.25;;;24.00;69.24
52105;BME280;38103;42.776;23.112;2022-07-06T10:22:57;94044.84;;;24.00;71.72
52105;BME280;38103;42.776;23.112;2022-07-06T10:25:24;94031.81;;;23.85;68.38
52105;BME280;38103;42.776;23.112;2022-07-06T10:27:51;94043.91;;;23.96;68.22
52105;BME280;38103;42.776;23.112;2022-07-06T10:30:17;94039.44;;;24.00;70.33
52105;BME280;38103;42.776;23.112;2022-07-06T10:32:46;94030.88;;;24.16;72.86
52105;BME280;38103;42.776;23.112;2022-07-06T10:35:14;93996.72;;;24.03;71.80
52105;BME280;38103;42.776;23.112;2022-07-06T10:37:40;94036.91;;;24.31;69.04
52105;BME280;38103;42.776;23.112;2022-07-06T10:40:06;94050.75;;;24.29;68.39
52105;BME280;38103;42.776;23.112;2022-07-06T10:42:57;94056.75;;;23.99;65.59
52105;BME280;38103;42.776;23.112;2022-07-06T10:50:45;94048.34;;;24.10;68.95
52105;BME280;38103;42.776;23.112;2022-07-06T10:53:13;94044.38;;;24.16;68.54
52105;BME280;38103;42.776;23.112;2022-07-06T10:55:40;94047.88;;;24.08;68.15
52105;BME280;38103;42.776;23.112;2022-07-06T10:58:06;94037.84;;;23.99;67.80
52105;BME280;38103;42.776;23.112;2022-07-06T11:03:40;94040.06;;;24.15;65.34
52105;BME280;38103;42.776;23.112;2022-07-06T11:06:11;94041.66;;;24.16;64.67
52105;BME280;38103;42.776;23.112;2022-07-06T11:11:18;94013.09;;;23.97;66.83
52105;BME280;38103;42.776;23.112;2022-07-06T11:16:21;94031.03;;;24.02;66.79
52105;BME280;38103;42.776;23.112;2022-07-06T11:18:50;94035.78;;;24.14;68.27
52105;BME280;38103;42.776;23.112;2022-07-06T11:21:32;94028.78;;;24.40;69.52
52105;BME280;38103;42.776;23.112;2022-07-06T11:23:58;94020.94;;;24.56;66.00
52105;BME280;38103;42.776;23.112;2022-07-06T11:26:24;94000.13;;;24.57;65.55
52105;BME280;38103;42.776;23.112;2022-07-06T11:28:51;94018.56;;;24.63;64.32
52105;BME280;38103;42.776;23.112;2022-07-06T11:31:17;94021.09;;;24.60;62.92
52105;BME280;38103;42.776;23.112;2022-07-06T11:33:46;94014.25;;;24.62;63.91
52105;BME280;38103;42.776;23.112;2022-07-06T11:36:20;94016.66;;;24.55;65.53
52105;BME280;38103;42.776;23.112;2022-07-06T11:38:48;94020.16;;;24.55;65.00
52105;BME280;38103;42.776;23.112;2022-07-06T11:41:14;94006.97;;;24.54;65.84
52105;BME280;38103;42.776;23.112;2022-07-06T11:43:43;94007.13;;;24.49;63.40
52105;BME280;38103;42.776;23.112;2022-07-06T11:46:27;94002.19;;;24.51;63.78
52105;BME280;38103;42.776;23.112;2022-07-06T11:48:55;94005.56;;;24.48;67.10
52105;BME280;38103;42.776;23.112;2022-07-06T11:51:22;93995.88;;;24.47;64.57
52105;BME280;38103;42.776;23.112;2022-07-06T11:53:51;93993.91;;;24.56;64.86
52105;BME280;38103;42.776;23.112;2022-07-06T11:56:17;93990.69;;;24.72;66.26
52105;BME280;38103;42.776;23.112;2022-07-06T11:58:51;93996.75;;;24.69;66.83
52105;BME280;38103;42.776;23.112;2022-07-06T12:01:16;93992.00;;;24.65;66.01
52105;BME280;38103;42.776;23.112;2022-07-06T12:03:42;93987.22;;;24.62;66.25
52105;BME280;38103;42.776;23.112;2022-07-06T12:06:17;93988.81;;;24.63;65.07
52105;BME280;38103;42.776;23.112;2022-07-06T12:08:48;93996.78;;;24.51;62.18
52105;BME280;38103;42.776;23.112;2022-07-06T12:11:34;93987.13;;;24.50;62.47
52105;BME280;38103;42.776;23.112;2022-07-06T12:14:01;93987.94;;;24.41;66.56
52105;BME280;38103;42.776;23.112;2022-07-06T12:16:32;93997.47;;;24.48;68.93
52105;BME280;38103;42.776;23.112;2022-07-06T12:19:00;93994.28;;;24.46;64.36
52105;BME280;38103;42.776;23.112;2022-07-06T12:21:25;93994.41;;;24.49;68.46
52105;BME280;38103;42.776;23.112;2022-07-06T12:23:53;93988.16;;;24.66;65.21
52105;BME280;38103;42.776;23.112;2022-07-06T12:26:21;93951.69;;;24.42;63.07
52105;BME280;38103;42.776;23.112;2022-07-06T12:29:04;93994.53;;;24.71;66.11
52105;BME280;38103;42.776;23.112;2022-07-06T12:31:37;93995.16;;;24.67;60.59
52105;BME280;38103;42.776;23.112;2022-07-06T12:34:04;93992.91;;;24.70;58.46
52105;BME280;38103;42.776;23.112;2022-07-06T12:36:31;93986.88;;;24.64;60.21
52105;BME280;38103;42.776;23.112;2022-07-06T12:38:57;93946.31;;;24.33;61.37
52105;BME280;38103;42.776;23.112;2022-07-06T12:41:31;93980.22;;;24.61;59.87
52105;BME280;38103;42.776;23.112;2022-07-06T12:44:08;93977.06;;;24.59;60.23
52105;BME280;38103;42.776;23.112;2022-07-06T12:46:34;93981.06;;;24.53;60.81
52105;BME280;38103;42.776;23.112;2022-07-06T12:54:18;93970.84;;;24.59;59.54
52105;BME280;38103;42.776;23.112;2022-07-06T12:59:29;93961.66;;;24.51;60.58
52105;BME280;38103;42.776;23.112;2022-07-06T13:01:55;93965.97;;;24.52;62.54
52105;BME280;38103;42.776;23.112;2022-07-06T13:04:25;93955.78;;;24.58;58.85
52105;BME280;38103;42.776;23.112;2022-07-06T13:06:51;93956.25;;;24.51;55.13
52105;BME280;38103;42.776;23.112;2022-07-06T13:09:17;93951.41;;;24.35;55.31